createdAt,value
2023-05-04T00:02:03.559Z,24.12
2023-05-04T00:04:30.163Z,24.12
2023-05-04T00:06:56.731Z,24.12
2023-05-04T00:09:23.238Z,24.11
2023-05-04T00:11:49.819Z,24.10
2023-05-04T00:14:16.399Z,24.09
2023-05-04T00:16:44.187Z,24.07
2023-05-04T00:19:11.124Z,24.06
2023-05-04T00:21:37.788Z,24.05
2023-05-04T00:24:04.618Z,24.07
2023-05-04T00:26:31.176Z,24.06
2023-05-04T00:28:57.721Z,24.05
2023-05-04T00:31:24.420Z,24.03
2023-05-04T00:33:51.096Z,24.02
2023-05-04T00:36:17.601Z,24.01
2023-05-04T00:38:52.806Z,24.02
2023-05-04T00:41:20.354Z,24.00
2023-05-04T00:43:47.981Z,23.98
2023-05-04T00:46:15.309Z,23.97
2023-05-04T00:48:43.267Z,23.98
2023-05-04T00:51:12.363Z,23.98
2023-05-04T00:53:39.570Z,23.96
2023-05-04T00:56:07.680Z,23.96
2023-05-04T00:58:34.633Z,23.96
2023-05-04T01:01:02.360Z,23.94
2023-05-04T01:03:30.203Z,23.93
2023-05-04T01:06:20.279Z,23.92
2023-05-04T01:08:55.863Z,23.92
2023-05-04T01:11:30.077Z,23.91
2023-05-04T01:13:56.883Z,23.88
2023-05-04T01:16:23.461Z,23.89
2023-05-04T01:18:50.032Z,23.91
2023-05-04T01:21:16.585Z,23.89
2023-05-04T01:23:43.231Z,23.88
2023-05-04T01:26:39.833Z,23.86
2023-05-04T01:29:23.464Z,23.86
2023-05-04T01:31:51.245Z,23.85
2023-05-04T01:34:18.282Z,23.84
2023-05-04T01:36:46.043Z,23.82
2023-05-04T01:39:12.583Z,23.82
2023-05-04T01:41:39.391Z,23.82
2023-05-04T01:44:06.145Z,23.80
2023-05-04T01:46:32.838Z,23.79
2023-05-04T01:48:59.380Z,23.78
2023-05-04T01:51:26.013Z,23.78
2023-05-04T01:53:52.528Z,23.78
2023-05-04T01:56:19.196Z,23.78
2023-05-04T01:58:45.803Z,23.76
2023-05-04T02:01:12.332Z,23.73
2023-05-04T02:03:38.970Z,23.75
2023-05-04T02:06:06.175Z,23.74
2023-05-04T02:08:33.260Z,23.73
2023-05-04T02:10:59.847Z,23.73
2023-05-04T02:13:26.380Z,23.73
2023-05-04T02:15:52.954Z,23.71
2023-05-04T02:18:19.554Z,23.69
2023-05-04T02:20:46.241Z,23.70
2023-05-04T02:23:12.802Z,23.69
2023-05-04T02:25:41.467Z,23.69
2023-05-04T02:28:08.351Z,23.67
2023-05-04T02:30:35.129Z,23.67
2023-05-04T02:33:01.761Z,23.64
2023-05-04T02:35:28.337Z,23.64
2023-05-04T02:37:54.802Z,23.63
2023-05-04T02:40:21.343Z,23.62
2023-05-04T02:42:47.874Z,23.64
2023-05-04T02:45:14.536Z,23.63
2023-05-04T02:47:41.075Z,23.64
2023-05-04T02:50:08.353Z,23.63
2023-05-04T02:52:35.316Z,23.61
2023-05-04T02:55:03.229Z,23.60
2023-05-04T02:57:29.934Z,23.58
2023-05-04T02:59:56.744Z,23.57
2023-05-04T03:02:23.329Z,23.58
2023-05-04T03:04:49.854Z,23.58
2023-05-04T03:07:16.377Z,23.56
2023-05-04T03:09:43.802Z,23.56
2023-05-04T03:12:11.291Z,23.54
2023-05-04T03:14:37.844Z,23.52
2023-05-04T03:17:04.383Z,23.54
2023-05-04T03:19:30.970Z,23.53
2023-05-04T03:21:57.503Z,23.52
2023-05-04T03:24:24.065Z,23.51
2023-05-04T03:26:50.609Z,23.49
2023-05-04T03:29:17.131Z,23.49
2023-05-04T03:31:43.824Z,23.48
2023-05-04T03:34:12.632Z,23.48
2023-05-04T03:36:39.204Z,23.47
2023-05-04T03:39:05.747Z,23.47
2023-05-04T03:41:32.219Z,23.45
2023-05-04T03:43:58.794Z,23.45
2023-05-04T03:46:25.452Z,23.44
2023-05-04T03:48:51.975Z,23.42
2023-05-04T03:51:18.532Z,23.42
2023-05-04T03:53:45.350Z,23.41
2023-05-04T03:56:11.844Z,23.39
2023-05-04T03:58:38.423Z,23.37
2023-05-04T04:01:05.015Z,23.36
2023-05-04T04:03:31.837Z,23.34
2023-05-04T04:05:58.694Z,23.34
2023-05-04T04:08:25.232Z,23.35
2023-05-04T04:10:51.786Z,23.33
2023-05-04T04:13:18.353Z,23.33
2023-05-04T04:15:46.551Z,23.33
2023-05-04T04:18:13.238Z,23.30
2023-05-04T04:20:39.804Z,23.32
2023-05-04T04:23:06.350Z,23.34
2023-05-04T04:25:32.956Z,23.36
2023-05-04T04:27:59.441Z,23.35
2023-05-04T04:30:25.968Z,23.36
2023-05-04T04:32:53.839Z,23.37
2023-05-04T04:35:20.503Z,23.37
2023-05-04T04:37:47.293Z,23.37
2023-05-04T04:40:14.398Z,23.36
2023-05-04T04:42:41.921Z,23.35
2023-05-04T04:45:08.750Z,23.35
2023-05-04T04:47:36.022Z,23.35
2023-05-04T04:50:04.824Z,23.35
2023-05-04T04:52:32.612Z,23.36
2023-05-04T04:54:59.921Z,23.36
2023-05-04T04:57:26.924Z,23.32
2023-05-04T04:59:53.463Z,23.34
2023-05-04T05:02:20.700Z,23.34
2023-05-04T05:04:47.325Z,23.34
2023-05-04T05:07:13.895Z,23.31
2023-05-04T05:09:40.512Z,23.29
2023-05-04T05:12:07.169Z,23.30
2023-05-04T05:14:33.702Z,23.30
2023-05-04T05:17:00.501Z,23.30
2023-05-04T05:19:27.528Z,23.27
2023-05-04T05:21:54.024Z,23.26
2023-05-04T05:24:20.598Z,23.26
2023-05-04T05:26:47.080Z,23.27
2023-05-04T05:29:13.675Z,23.27
2023-05-04T05:31:40.272Z,23.29
2023-05-04T05:34:06.779Z,23.30
2023-05-04T05:36:33.566Z,23.31
2023-05-04T05:39:00.153Z,23.31
2023-05-04T05:41:26.636Z,23.32
2023-05-04T05:43:53.158Z,23.35
2023-05-04T05:46:19.808Z,23.34
2023-05-04T05:48:46.362Z,23.34
2023-05-04T05:51:12.857Z,23.35
2023-05-04T05:53:39.360Z,23.33
2023-05-04T05:56:06.090Z,23.34
2023-05-04T05:58:32.779Z,23.34
2023-05-04T06:00:59.519Z,23.30
2023-05-04T06:03:26.185Z,23.30
2023-05-04T06:05:52.873Z,23.32
2023-05-04T06:08:19.343Z,23.33
2023-05-04T06:10:46.213Z,23.33
2023-05-04T06:13:12.797Z,23.33
2023-05-04T06:15:39.379Z,23.35
2023-05-04T06:18:05.983Z,23.34
2023-05-04T06:20:32.678Z,23.33
2023-05-04T06:22:59.231Z,23.32
2023-05-04T06:25:25.903Z,23.31
2023-05-04T06:27:52.513Z,23.29
2023-05-04T06:30:19.136Z,23.29
2023-05-04T06:32:46.882Z,23.27
2023-05-04T06:35:13.825Z,23.30
2023-05-04T06:37:40.410Z,23.30
2023-05-04T06:40:07.932Z,23.27
2023-05-04T06:42:34.655Z,23.31
2023-05-04T06:45:01.169Z,23.31
2023-05-04T06:47:27.772Z,23.30
2023-05-04T06:49:54.530Z,23.27
2023-05-04T06:52:21.661Z,23.27
2023-05-04T06:54:48.164Z,23.26
2023-05-04T06:57:14.978Z,23.25
2023-05-04T06:59:41.510Z,23.25
2023-05-04T07:02:08.013Z,23.24
2023-05-04T07:04:34.525Z,23.23
2023-05-04T07:07:01.041Z,23.22
2023-05-04T07:09:27.552Z,23.23
2023-05-04T07:11:54.136Z,23.23
2023-05-04T07:14:21.810Z,23.22
2023-05-04T07:16:48.468Z,23.23
2023-05-04T07:19:15.021Z,23.21
2023-05-04T07:21:41.539Z,23.23
2023-05-04T07:24:08.178Z,23.22
2023-05-04T07:26:34.668Z,23.23
2023-05-04T07:29:01.187Z,23.22
2023-05-04T07:31:29.512Z,23.23
2023-05-04T07:33:56.922Z,23.22
2023-05-04T07:36:24.908Z,23.20
2023-05-04T07:38:51.403Z,23.19
2023-05-04T07:41:18.030Z,23.19
2023-05-04T07:43:44.520Z,23.19
2023-05-04T07:46:11.194Z,23.20
2023-05-04T07:48:37.734Z,23.22
2023-05-04T07:51:04.580Z,23.22
2023-05-04T07:53:31.197Z,23.21
2023-05-04T07:55:57.757Z,23.21
2023-05-04T07:58:24.338Z,23.18
2023-05-04T08:00:50.963Z,23.19
2023-05-04T08:03:17.520Z,23.19
2023-05-04T08:05:44.112Z,23.17
2023-05-04T08:08:10.791Z,23.19
2023-05-04T08:10:38.213Z,23.18
2023-05-04T08:13:06.140Z,23.18
2023-05-04T08:15:32.912Z,23.17
2023-05-04T08:17:59.664Z,23.17
2023-05-04T08:20:26.211Z,23.19
2023-05-04T08:22:53.408Z,23.19
2023-05-04T08:25:20.159Z,23.19
2023-05-04T08:27:46.805Z,23.18
2023-05-04T08:30:13.686Z,23.17
2023-05-04T08:32:40.415Z,23.18
2023-05-04T08:35:07.314Z,23.16
2023-05-04T08:37:34.069Z,23.16
2023-05-04T08:40:00.611Z,23.17
2023-05-04T08:42:32.179Z,23.18
2023-05-04T08:44:59.537Z,23.17
2023-05-04T08:47:27.329Z,23.17
2023-05-04T08:49:54.926Z,23.16
2023-05-04T08:52:24.649Z,23.16
2023-05-04T08:54:56.035Z,23.16
2023-05-04T08:57:26.103Z,23.17
2023-05-04T08:59:54.775Z,23.17
2023-05-04T09:02:24.251Z,23.17
2023-05-04T09:04:51.704Z,23.17
2023-05-04T09:07:19.666Z,23.16
2023-05-04T09:09:47.349Z,23.17
2023-05-04T09:12:14.478Z,23.17
2023-05-04T09:14:41.650Z,23.16
2023-05-04T09:17:18.009Z,23.17
2023-05-04T09:19:44.693Z,23.17
2023-05-04T09:22:18.482Z,23.18
2023-05-04T09:24:46.397Z,23.18
2023-05-04T09:27:15.918Z,23.18
2023-05-04T09:29:43.042Z,23.17
2023-05-04T09:32:15.084Z,23.17
2023-05-04T09:34:52.047Z,23.17
2023-05-04T09:37:22.723Z,23.19
2023-05-04T09:39:51.441Z,23.19
2023-05-04T09:42:18.807Z,23.19
2023-05-04T09:44:45.330Z,23.22
2023-05-04T09:47:12.548Z,23.22
2023-05-04T09:49:39.916Z,23.23
2023-05-04T09:52:07.022Z,23.22
2023-05-04T09:54:36.122Z,23.22
2023-05-04T09:57:11.730Z,23.21
2023-05-04T09:59:38.712Z,23.24
2023-05-04T10:02:18.643Z,23.23
2023-05-04T10:04:51.249Z,23.23
2023-05-04T10:07:18.128Z,23.25
2023-05-04T10:09:46.921Z,23.26
2023-05-04T10:12:14.510Z,23.27
2023-05-04T10:14:42.852Z,23.27
2023-05-04T10:17:24.550Z,23.28
2023-05-04T10:20:11.859Z,23.29
2023-05-04T10:22:57.031Z,23.30
2023-05-04T10:25:50.757Z,23.32
2023-05-04T10:28:37.484Z,23.33
2023-05-04T10:31:06.266Z,23.32
2023-05-04T10:33:40.434Z,23.32
2023-05-04T10:36:08.363Z,23.32
2023-05-04T10:38:35.979Z,23.33
2023-05-04T10:41:15.614Z,23.32
2023-05-04T10:43:43.001Z,23.32
2023-05-04T10:46:20.158Z,23.31
2023-05-04T10:48:47.017Z,23.31
2023-05-04T10:51:30.394Z,23.34
2023-05-04T10:54:01.434Z,23.36
2023-05-04T10:56:28.634Z,23.35
2023-05-04T10:58:55.411Z,23.37
2023-05-04T11:01:22.488Z,23.39
2023-05-04T11:03:49.709Z,23.41
2023-05-04T11:06:23.915Z,23.41
2023-05-04T11:09:02.123Z,23.41
2023-05-04T11:11:28.777Z,23.43
2023-05-04T11:13:56.514Z,23.43
2023-05-04T11:16:27.498Z,23.45
2023-05-04T11:18:54.740Z,23.45
2023-05-04T11:21:25.733Z,23.44
2023-05-04T11:23:57.366Z,23.45
2023-05-04T11:26:24.902Z,23.47
2023-05-04T11:28:51.677Z,23.48
2023-05-04T11:31:20.398Z,23.46
2023-05-04T11:33:51.469Z,23.47
2023-05-04T11:36:19.052Z,23.47
2023-05-04T11:38:45.956Z,23.49
2023-05-04T11:41:13.042Z,23.50
2023-05-04T11:43:42.401Z,23.51
2023-05-04T11:46:10.373Z,23.53
2023-05-04T11:48:38.028Z,23.52
2023-05-04T11:51:05.607Z,23.54
2023-05-04T11:53:39.547Z,23.55
2023-05-04T11:56:08.952Z,23.57
2023-05-04T11:58:36.159Z,23.57
2023-05-04T12:01:03.974Z,23.56
2023-05-04T12:03:43.833Z,23.58
2023-05-04T12:06:18.475Z,23.59
2023-05-04T12:08:45.122Z,23.59
2023-05-04T12:11:20.463Z,23.62
2023-05-04T12:13:48.827Z,23.62
2023-05-04T12:16:17.537Z,23.63
2023-05-04T12:18:46.107Z,23.65
2023-05-04T12:21:18.620Z,23.66
2023-05-04T12:23:46.947Z,23.68
2023-05-04T12:26:15.354Z,23.67
2023-05-04T12:28:43.098Z,23.69
2023-05-04T12:31:10.266Z,23.71
2023-05-04T12:33:36.878Z,23.72
2023-05-04T12:36:05.815Z,23.72
2023-05-04T12:38:32.496Z,23.76
2023-05-04T12:41:02.272Z,23.77
2023-05-04T12:43:29.228Z,23.77
2023-05-04T12:45:55.979Z,23.80
2023-05-04T12:48:22.914Z,23.80
2023-05-04T12:50:51.079Z,23.82
2023-05-04T12:53:18.532Z,23.83
2023-05-04T12:55:45.299Z,23.86
2023-05-04T12:58:11.889Z,23.88
2023-05-04T13:00:39.145Z,23.89
2023-05-04T13:03:06.334Z,23.91
2023-05-04T13:05:33.231Z,23.93
2023-05-04T13:07:59.743Z,23.93
2023-05-04T13:10:26.314Z,23.96
2023-05-04T13:12:52.951Z,23.98
2023-05-04T13:15:19.723Z,23.99
2023-05-04T13:17:46.232Z,24.01
2023-05-04T13:20:13.362Z,24.04
2023-05-04T13:22:40.226Z,24.06
2023-05-04T13:25:07.731Z,24.07
2023-05-04T13:27:34.804Z,24.09
2023-05-04T13:30:03.737Z,24.10
2023-05-04T13:32:31.139Z,24.11
2023-05-04T13:34:57.908Z,24.13
2023-05-04T13:37:24.670Z,24.16
2023-05-04T13:39:51.342Z,24.18
2023-05-04T13:42:17.985Z,24.20
2023-05-04T13:44:48.312Z,24.22
2023-05-04T13:47:16.618Z,24.23
2023-05-04T13:49:43.496Z,24.27
2023-05-04T13:52:10.060Z,24.28
2023-05-04T13:54:37.280Z,24.31
2023-05-04T13:57:04.457Z,24.33
2023-05-04T13:59:31.360Z,24.35
2023-05-04T14:01:57.884Z,24.37
2023-05-04T14:04:24.492Z,24.38
2023-05-04T14:06:51.888Z,24.41
2023-05-04T14:09:19.723Z,24.42
2023-05-04T14:11:47.515Z,24.44
2023-05-04T14:14:14.262Z,24.46
2023-05-04T14:16:40.842Z,24.48
2023-05-04T14:19:07.463Z,24.50
2023-05-04T14:21:36.152Z,24.52
2023-05-04T14:24:03.445Z,24.54
2023-05-04T14:26:31.771Z,24.55
2023-05-04T14:28:58.613Z,24.58
2023-05-04T14:31:25.366Z,24.61
2023-05-04T14:33:51.931Z,24.62
2023-05-04T14:36:18.442Z,24.64
2023-05-04T14:38:45.791Z,24.67
2023-05-04T14:41:13.681Z,24.69
2023-05-04T14:43:41.819Z,24.69
2023-05-04T14:46:12.860Z,24.72
2023-05-04T14:48:39.547Z,24.75
2023-05-04T14:51:06.438Z,24.76
2023-05-04T14:53:36.291Z,24.78
2023-05-04T14:56:04.557Z,24.81
2023-05-04T14:58:31.266Z,24.82
2023-05-04T15:00:57.851Z,24.83
2023-05-04T15:03:25.946Z,24.85
2023-05-04T15:05:52.777Z,24.86
2023-05-04T15:08:19.398Z,24.89
2023-05-04T15:10:46.074Z,24.89
2023-05-04T15:13:15.522Z,24.90
2023-05-04T15:15:42.409Z,24.92
2023-05-04T15:18:09.118Z,24.94
2023-05-04T15:20:38.856Z,24.94
2023-05-04T15:23:14.705Z,24.95
2023-05-04T15:25:42.047Z,24.98
2023-05-04T15:28:10.778Z,24.99
2023-05-04T15:30:38.684Z,25.00
2023-05-04T15:33:05.606Z,25.01
2023-05-04T15:35:33.980Z,25.03
2023-05-04T15:38:00.990Z,25.05
2023-05-04T15:40:28.523Z,25.07
2023-05-04T15:42:55.626Z,25.08
2023-05-04T15:45:22.533Z,25.09
2023-05-04T15:47:49.383Z,25.10
2023-05-04T15:50:16.131Z,25.11
2023-05-04T15:52:42.722Z,25.12
2023-05-04T15:55:24.401Z,25.12
2023-05-04T15:57:52.760Z,25.14
2023-05-04T16:00:20.833Z,25.16
2023-05-04T16:02:47.479Z,25.17
2023-05-04T16:05:14.106Z,25.19
2023-05-04T16:07:40.778Z,25.20
2023-05-04T16:10:08.200Z,25.21
2023-05-04T16:12:35.016Z,25.21
2023-05-04T16:15:01.533Z,25.24
2023-05-04T16:17:29.309Z,25.24
2023-05-04T16:19:56.068Z,25.25
2023-05-04T16:22:22.666Z,25.27
2023-05-04T16:24:49.161Z,25.28
2023-05-04T16:27:16.371Z,25.29
2023-05-04T16:29:42.878Z,25.32
2023-05-04T16:32:09.475Z,25.31
2023-05-04T16:34:36.178Z,25.33
2023-05-04T16:37:02.757Z,25.34
2023-05-04T16:39:34.230Z,25.34
2023-05-04T16:42:02.178Z,25.36
2023-05-04T16:44:31.355Z,25.37
2023-05-04T16:47:00.796Z,25.38
2023-05-04T16:49:27.476Z,25.39
2023-05-04T16:51:55.237Z,25.41
2023-05-04T16:54:24.005Z,25.43
2023-05-04T16:56:50.654Z,25.44
2023-05-04T16:59:17.197Z,25.43
2023-05-04T17:01:44.224Z,25.44
2023-05-04T17:04:10.957Z,25.45
2023-05-04T17:06:38.184Z,25.47
2023-05-04T17:09:05.213Z,25.46
2023-05-04T17:11:32.222Z,25.47
2023-05-04T17:13:59.298Z,25.49
2023-05-04T17:16:26.069Z,25.51
2023-05-04T17:18:52.674Z,25.51
2023-05-04T17:21:19.852Z,25.52
2023-05-04T17:23:46.470Z,25.52
2023-05-04T17:26:13.210Z,25.53
2023-05-04T17:28:39.778Z,25.54
2023-05-04T17:31:10.010Z,25.55
2023-05-04T17:33:36.486Z,25.55
2023-05-04T17:36:03.961Z,25.56
2023-05-04T17:38:30.547Z,25.57
2023-05-04T17:40:57.297Z,25.58
2023-05-04T17:43:23.794Z,25.57
2023-05-04T17:45:50.384Z,25.58
2023-05-04T17:48:16.971Z,25.58
2023-05-04T17:50:43.488Z,25.60
2023-05-04T17:53:10.101Z,25.60
2023-05-04T17:55:36.847Z,25.61
2023-05-04T17:58:03.469Z,25.60
2023-05-04T18:00:30.008Z,25.61
2023-05-04T18:02:56.574Z,25.62
2023-05-04T18:05:23.330Z,25.62
2023-05-04T18:07:49.842Z,25.62
2023-05-04T18:10:16.483Z,25.62
2023-05-04T18:12:43.114Z,25.62
2023-05-04T18:15:09.972Z,25.63
2023-05-04T18:17:37.973Z,25.63
2023-05-04T18:20:08.184Z,25.65
2023-05-04T18:22:34.968Z,25.64
2023-05-04T18:25:01.843Z,25.64
2023-05-04T18:27:34.919Z,25.65
2023-05-04T18:30:02.695Z,25.65
2023-05-04T18:32:29.287Z,25.65
2023-05-04T18:34:57.935Z,25.65
2023-05-04T18:37:25.513Z,25.65
2023-05-04T18:39:52.116Z,25.66
2023-05-04T18:42:18.653Z,25.66
2023-05-04T18:44:45.924Z,25.65
2023-05-04T18:47:12.518Z,25.67
2023-05-04T18:49:39.088Z,25.66
2023-05-04T18:52:05.831Z,25.66
2023-05-04T18:54:32.744Z,25.65
2023-05-04T18:56:59.466Z,25.66
2023-05-04T18:59:26.025Z,25.66
2023-05-04T19:01:53.005Z,25.65
2023-05-04T19:04:19.634Z,25.66
2023-05-04T19:06:47.617Z,25.66
2023-05-04T19:09:14.885Z,25.67
2023-05-04T19:11:41.458Z,25.66
2023-05-04T19:14:08.059Z,25.66
2023-05-04T19:16:34.636Z,25.66
2023-05-04T19:19:01.127Z,25.66
2023-05-04T19:21:28.708Z,25.65
2023-05-04T19:23:55.287Z,25.67
2023-05-04T19:26:21.899Z,25.65
2023-05-04T19:28:48.421Z,25.65
2023-05-04T19:31:15.623Z,25.64
2023-05-04T19:33:48.536Z,25.65
2023-05-04T19:36:16.890Z,25.64
2023-05-04T19:38:43.655Z,25.64
2023-05-04T19:41:10.287Z,25.64
2023-05-04T19:43:38.449Z,25.63
2023-05-04T19:46:05.048Z,25.64
2023-05-04T19:48:31.613Z,25.64
2023-05-04T19:50:58.221Z,25.63
2023-05-04T19:53:25.120Z,25.64
2023-05-04T19:55:52.350Z,25.63
2023-05-04T19:58:18.889Z,25.63
2023-05-04T20:00:45.421Z,25.64
2023-05-04T20:03:12.019Z,25.62
2023-05-04T20:05:38.534Z,25.62
2023-05-04T20:08:05.533Z,25.62
2023-05-04T20:10:32.388Z,25.62
2023-05-04T20:12:59.036Z,25.61
2023-05-04T20:15:25.955Z,25.61
2023-05-04T20:17:52.735Z,25.60
2023-05-04T20:20:21.484Z,25.60
2023-05-04T20:22:52.013Z,25.59
2023-05-04T20:25:19.967Z,25.60
2023-05-04T20:27:48.695Z,25.58
2023-05-04T20:30:15.675Z,25.58
2023-05-04T20:32:42.687Z,25.59
2023-05-04T20:35:09.699Z,25.58
2023-05-04T20:37:36.283Z,25.57
2023-05-04T20:40:02.950Z,25.56
2023-05-04T20:42:29.865Z,25.57
2023-05-04T20:44:56.350Z,25.57
2023-05-04T20:47:22.982Z,25.56
2023-05-04T20:49:49.555Z,25.55
2023-05-04T20:52:16.048Z,25.55
2023-05-04T20:54:42.566Z,25.56
2023-05-04T20:57:09.378Z,25.55
2023-05-04T20:59:35.908Z,25.52
2023-05-04T21:02:02.419Z,25.51
2023-05-04T21:04:28.974Z,25.51
2023-05-04T21:06:57.012Z,25.52
2023-05-04T21:09:23.541Z,25.51
2023-05-04T21:11:50.650Z,25.51
2023-05-04T21:14:17.135Z,25.51
2023-05-04T21:16:43.688Z,25.49
2023-05-04T21:19:10.279Z,25.50
2023-05-04T21:21:40.736Z,25.50
2023-05-04T21:24:13.964Z,25.48
2023-05-04T21:26:41.380Z,25.49
2023-05-04T21:29:15.143Z,25.48
2023-05-04T21:31:42.094Z,25.47
2023-05-04T21:34:08.881Z,25.46
2023-05-04T21:36:35.820Z,25.45
2023-05-04T21:39:02.350Z,25.46
2023-05-04T21:41:29.748Z,25.44
2023-05-04T21:43:56.306Z,25.44
2023-05-04T21:46:23.146Z,25.46
2023-05-04T21:48:51.594Z,25.43
2023-05-04T21:51:20.621Z,25.45
2023-05-04T21:53:47.391Z,25.45
2023-05-04T21:56:13.932Z,25.43
2023-05-04T21:58:40.962Z,25.41
2023-05-04T22:01:08.292Z,25.40
2023-05-04T22:03:35.231Z,25.41
2023-05-04T22:06:02.046Z,25.39
2023-05-04T22:08:29.434Z,25.40
2023-05-04T22:10:57.264Z,25.41
2023-05-04T22:13:24.299Z,25.40
2023-05-04T22:15:51.219Z,25.39
2023-05-04T22:18:17.830Z,25.38
2023-05-04T22:20:44.569Z,25.39
2023-05-04T22:23:11.125Z,25.37
2023-05-04T22:25:38.146Z,25.37
2023-05-04T22:28:05.412Z,25.36
2023-05-04T22:30:32.301Z,25.36
2023-05-04T22:32:58.922Z,25.35
2023-05-04T22:35:25.476Z,25.35
2023-05-04T22:37:51.995Z,25.35
2023-05-04T22:40:18.740Z,25.34
2023-05-04T22:42:45.657Z,25.34
2023-05-04T22:45:17.889Z,25.34
2023-05-04T22:47:45.736Z,25.33
2023-05-04T22:50:13.503Z,25.31
2023-05-04T22:52:40.441Z,25.32
2023-05-04T22:55:08.270Z,25.33
2023-05-04T22:57:35.134Z,25.29
2023-05-04T23:00:01.715Z,25.29
2023-05-04T23:02:28.442Z,25.30
2023-05-04T23:04:55.306Z,25.30
2023-05-04T23:07:21.937Z,25.31
2023-05-04T23:09:48.489Z,25.30
2023-05-04T23:12:15.311Z,25.27
2023-05-04T23:14:41.988Z,25.27
2023-05-04T23:17:09.376Z,25.26
2023-05-04T23:19:36.085Z,25.26
2023-05-04T23:22:02.603Z,25.26
2023-05-04T23:24:29.135Z,25.25
2023-05-04T23:26:55.668Z,25.24
2023-05-04T23:29:22.196Z,25.26
2023-05-04T23:31:48.720Z,25.24
2023-05-04T23:34:15.483Z,25.23
2023-05-04T23:36:42.129Z,25.22
2023-05-04T23:39:09.023Z,25.22
2023-05-04T23:41:35.746Z,25.22
2023-05-04T23:44:03.332Z,25.20
2023-05-04T23:46:29.917Z,25.21
2023-05-04T23:48:56.533Z,25.21
2023-05-04T23:51:23.115Z,25.20
2023-05-04T23:53:49.948Z,25.18
2023-05-04T23:56:17.440Z,25.17
2023-05-04T23:58:43.943Z,25.18
